Time;durP1;ratioP1;P1;durP2;ratioP2;P2;SDS_P1;SDS_P2;PMS_P1;PMS_P2;Temp;Humidity;BMP_temperature;BMP_pressure;BME280_temperature;BME280_humidity;BME280_pressure;Samples;Min_cycle;Max_cycle;Signal;HPM_P1;HPM_P2
2023/05/08 00:00:28;;;;;;;;;;;15.70;76.50;;;;;;5088248;28;20424;-77
2023/05/08 00:02:53;;;;;;;;;;;15.70;76.50;;;;;;5087403;28;19936;-77
2023/05/08 00:05:19;;;;;;;;;;;15.80;76.50;;;;;;5088370;28;19919;-77
2023/05/08 00:07:45;;;;;;;;;;;15.80;76.50;;;;;;5089410;28;19920;-77
2023/05/08 00:10:10;;;;;;;;;;;15.80;76.40;;;;;;5088193;28;19931;-77
2023/05/08 00:12:36;;;;;;;;;;;15.80;76.40;;;;;;5088288;28;20310;-77
2023/05/08 00:15:02;;;;;;;;;;;15.80;76.50;;;;;;5088233;28;20225;-77
2023/05/08 00:17:28;;;;;;;;;;;15.80;76.50;;;;;;5088302;28;19912;-77
2023/05/08 00:19:53;;;;;;;;;;;15.80;76.50;;;;;;5086820;28;19933;-77
2023/05/08 00:22:19;;;;;;;;;;;15.80;76.50;;;;;;5087979;28;20420;-77
2023/05/08 00:24:45;;;;;;;;;;;15.70;76.40;;;;;;5087832;28;19912;-77
2023/05/08 00:27:11;;;;;;;;;;;15.70;76.90;;;;;;5086574;28;19916;-77
2023/05/08 00:29:39;;;;;;;;;;;15.70;76.50;;;;;;5087913;28;20394;-77
2023/05/08 00:32:07;;;;;;;;;;;15.70;77.00;;;;;;5087976;28;19926;-77
2023/05/08 00:34:33;;;;;;;;;;;15.70;76.90;;;;;;5087768;28;19908;-77
2023/05/08 00:36:59;;;;;;;;;;;15.70;76.40;;;;;;5087819;28;20370;-77
2023/05/08 00:39:24;;;;;;;;;;;15.70;76.50;;;;;;5087838;28;20140;-77
2023/05/08 00:41:50;;;;;;;;;;;15.70;76.50;;;;;;5086615;28;19916;-77
2023/05/08 00:44:16;;;;;;;;;;;15.60;76.50;;;;;;5086386;28;20018;-77
2023/05/08 00:46:42;;;;;;;;;;;15.60;76.50;;;;;;5087756;28;20364;-77
2023/05/08 00:49:10;;;;;;;;;;;15.60;76.50;;;;;;5087743;28;19917;-77
2023/05/08 00:51:36;;;;;;;;;;;15.60;76.90;;;;;;5086557;28;20429;-77
2023/05/08 00:54:01;;;;;;;;;;;15.60;76.50;;;;;;5087684;28;19973;-77
2023/05/08 00:56:28;;;;;;;;;;;15.50;76.50;;;;;;5087640;28;19916;-77
2023/05/08 00:58:53;;;;;;;;;;;15.50;76.50;;;;;;5087787;28;19912;-77
2023/05/08 01:01:19;;;;;;;;;;;15.50;76.60;;;;;;5087693;28;19927;-77
2023/05/08 01:03:45;;;;;;;;;;;15.50;76.70;;;;;;5087588;28;20459;-77
2023/05/08 01:06:10;;;;;;;;;;;15.50;76.60;;;;;;5087564;28;19917;-77
2023/05/08 01:08:36;;;;;;;;;;;15.50;76.70;;;;;;5088073;28;20276;-77
2023/05/08 01:11:11;;;;;;;;;;;15.50;76.70;;;;;;5087693;28;19954;-77
2023/05/08 01:14:04;;;;;;;;;;;15.50;76.70;;;;;;5089933;28;19909;-77
2023/05/08 01:16:39;;;;;;;;;;;15.50;76.70;;;;;;5091391;28;19939;-77
2023/05/08 01:19:22;;;;;;;;;;;15.50;76.70;;;;;;5091319;28;19954;-77
2023/05/08 01:22:02;;;;;;;;;;;15.50;76.70;;;;;;5089972;28;19912;-77
2023/05/08 01:24:46;;;;;;;;;;;15.60;76.80;;;;;;5089781;28;19920;-77
2023/05/08 01:27:21;;;;;;;;;;;15.60;76.80;;;;;;5091315;28;19912;-77
2023/05/08 01:30:05;;;;;;;;;;;15.60;76.80;;;;;;5091193;28;19931;-77
2023/05/08 01:32:41;;;;;;;;;;;15.60;76.80;;;;;;5091060;28;19909;-77
2023/05/08 01:35:07;;;;;;;;;;;15.60;76.80;;;;;;5090928;28;19917;-77
2023/05/08 01:37:39;;;;;;;;;;;15.60;76.80;;;;;;5090981;28;20569;-77
2023/05/08 01:40:11;;;;;;;;;;;15.60;76.90;;;;;;5090973;28;19915;-77
2023/05/08 01:42:52;;;;;;;;;;;15.60;76.90;;;;;;5091012;28;19999;-77
2023/05/08 01:45:32;;;;;;;;;;;15.70;77.00;;;;;;5090950;28;19966;-77
2023/05/08 01:48:04;;;;;;;;;;;15.70;76.90;;;;;;5090827;28;19908;-77
2023/05/08 01:50:34;;;;;;;;;;;15.70;76.90;;;;;;5090788;28;20026;-77
2023/05/08 01:53:30;;;;;;;;;;;15.80;76.90;;;;;;5090597;28;19912;-77
2023/05/08 01:55:58;;;;;;;;;;;15.80;76.90;;;;;;5081662;28;19916;-77
2023/05/08 01:58:25;;;;;;;;;;;15.80;76.90;;;;;;5090585;28;19912;-77
2023/05/08 02:00:51;;;;;;;;;;;15.80;76.90;;;;;;5089094;28;20059;-77
2023/05/08 02:03:19;;;;;;;;;;;15.80;76.90;;;;;;5090543;28;19912;-77
2023/05/08 02:05:45;;;;;;;;;;;15.70;76.90;;;;;;5089101;28;19998;-77
2023/05/08 02:08:12;;;;;;;;;;;15.70;77.00;;;;;;5088985;28;19912;-77
2023/05/08 02:10:39;;;;;;;;;;;15.70;77.00;;;;;;5090836;28;20101;-77
2023/05/08 02:13:05;;;;;;;;;;;15.70;77.10;;;;;;5090319;28;19908;-77
2023/05/08 02:15:34;;;;;;;;;;;15.80;77.10;;;;;;5090137;28;20459;-77
2023/05/08 02:18:01;;;;;;;;;;;15.80;77.10;;;;;;5088871;28;19912;-77
2023/05/08 02:20:27;;;;;;;;;;;15.80;77.10;;;;;;5090289;28;19916;-77
2023/05/08 02:22:53;;;;;;;;;;;15.80;77.10;;;;;;5090192;28;19982;-77
2023/05/08 02:25:19;;;;;;;;;;;15.80;77.10;;;;;;5089165;28;19951;-77
2023/05/08 02:27:46;;;;;;;;;;;15.80;77.10;;;;;;5090041;28;19966;-77
2023/05/08 02:30:15;;;;;;;;;;;15.70;77.00;;;;;;5090064;28;19913;-77
2023/05/08 02:32:42;;;;;;;;;;;15.80;77.10;;;;;;5090075;28;19915;-77
2023/05/08 02:35:08;;;;;;;;;;;15.80;77.20;;;;;;5089867;28;19916;-77
2023/05/08 02:37:34;;;;;;;;;;;15.80;77.20;;;;;;5089905;28;19923;-77
2023/05/08 02:40:00;;;;;;;;;;;15.70;77.20;;;;;;5089842;28;20296;-77
2023/05/08 02:42:26;;;;;;;;;;;15.80;77.20;;;;;;5090275;28;19912;-77
2023/05/08 02:44:52;;;;;;;;;;;15.70;77.20;;;;;;5089635;28;19916;-76
2023/05/08 02:47:22;;;;;;;;;;;15.70;77.20;;;;;;5089756;28;19922;-77
2023/05/08 02:49:48;;;;;;;;;;;15.70;77.20;;;;;;5089580;28;20380;-77
2023/05/08 02:52:21;;;;;;;;;;;15.70;77.20;;;;;;5089633;28;19920;-77
2023/05/08 02:54:54;;;;;;;;;;;15.70;77.20;;;;;;5089529;28;19916;-77
2023/05/08 02:57:36;;;;;;;;;;;15.70;77.30;;;;;;5089469;28;19915;-77
2023/05/08 03:00:06;;;;;;;;;;;15.70;77.40;;;;;;5089565;28;19908;-77
2023/05/08 03:02:36;;;;;;;;;;;15.70;77.40;;;;;;5089222;28;19920;-77
2023/05/08 03:05:05;;;;;;;;;;;15.70;77.40;;;;;;5089192;28;19958;-77
2023/05/08 03:07:34;;;;;;;;;;;15.70;77.40;;;;;;5089221;28;19927;-77
2023/05/08 03:10:01;;;;;;;;;;;15.70;77.40;;;;;;5087892;28;19954;-77
2023/05/08 03:12:29;;;;;;;;;;;15.70;77.40;;;;;;5089622;28;19991;-77
2023/05/08 03:15:03;;;;;;;;;;;15.70;77.50;;;;;;5089201;28;19918;-77
2023/05/08 03:17:31;;;;;;;;;;;15.70;77.50;;;;;;5089583;28;19943;-77
2023/05/08 03:19:59;;;;;;;;;;;15.70;77.50;;;;;;5089023;28;19920;-77
2023/05/08 03:22:26;;;;;;;;;;;15.70;77.50;;;;;;5089120;28;19908;-77
2023/05/08 03:24:52;;;;;;;;;;;15.70;77.50;;;;;;5089039;28;20334;-77
2023/05/08 03:27:19;;;;;;;;;;;15.70;77.60;;;;;;5089011;28;19912;-77
2023/05/08 03:29:45;;;;;;;;;;;15.70;77.60;;;;;;5089076;28;19918;-77
2023/05/08 03:32:12;;;;;;;;;;;15.70;77.60;;;;;;5087700;28;19924;-77
2023/05/08 03:34:39;;;;;;;;;;;15.70;77.60;;;;;;5088693;28;20011;-77
2023/05/08 03:37:05;;;;;;;;;;;15.70;77.60;;;;;;5087415;28;19908;-77
2023/05/08 03:39:30;;;;;;;;;;;15.70;77.60;;;;;;5088724;28;19924;-77
2023/05/08 03:41:56;;;;;;;;;;;15.70;77.60;;;;;;5088778;28;19908;-77
2023/05/08 03:44:22;;;;;;;;;;;15.80;77.70;;;;;;5088495;28;19912;-77
2023/05/08 03:46:49;;;;;;;;;;;15.70;77.60;;;;;;5088597;28;19966;-77
2023/05/08 03:49:16;;;;;;;;;;;15.70;77.60;;;;;;5088525;28;19919;-77
2023/05/08 03:51:42;;;;;;;;;;;15.70;77.60;;;;;;5088567;28;19993;-77
2023/05/08 03:54:07;;;;;;;;;;;15.70;77.60;;;;;;5088333;28;20359;-77
2023/05/08 03:56:33;;;;;;;;;;;15.80;77.70;;;;;;5088662;28;19959;-77
2023/05/08 03:59:11;;;;;;;;;;;15.80;77.70;;;;;;5088696;28;19966;-77
2023/05/08 04:01:45;;;;;;;;;;;15.70;77.60;;;;;;5086574;28;20265;-77
2023/05/08 04:04:15;;;;;;;;;;;15.70;77.70;;;;;;5086663;28;19916;-77
2023/05/08 04:06:55;;;;;;;;;;;15.70;77.70;;;;;;5087917;28;19908;-77
2023/05/08 04:09:27;;;;;;;;;;;15.70;77.70;;;;;;5087848;28;20408;-77
2023/05/08 04:12:11;;;;;;;;;;;15.70;77.60;;;;;;5088082;28;19913;-77
2023/05/08 04:14:39;;;;;;;;;;;15.70;77.60;;;;;;5087935;28;19908;-77
2023/05/08 04:17:08;;;;;;;;;;;15.70;77.70;;;;;;5088054;28;19915;-77
2023/05/08 04:19:37;;;;;;;;;;;15.70;77.80;;;;;;5088129;28;20425;-77
2023/05/08 04:22:07;;;;;;;;;;;15.70;77.80;;;;;;5088528;28;19908;-77
2023/05/08 04:24:34;;;;;;;;;;;15.70;77.80;;;;;;5087966;28;19912;-77
2023/05/08 04:27:00;;;;;;;;;;;15.70;77.80;;;;;;5088025;28;20007;-77
2023/05/08 04:29:25;;;;;;;;;;;15.70;77.90;;;;;;5088010;28;20002;-77
2023/05/08 04:31:52;;;;;;;;;;;15.70;77.90;;;;;;5087949;28;20012;-77
2023/05/08 04:34:17;;;;;;;;;;;15.70;77.90;;;;;;5087872;28;20343;-78
2023/05/08 04:36:43;;;;;;;;;;;15.70;77.90;;;;;;5069791;28;20010;-78
2023/05/08 04:39:09;;;;;;;;;;;15.70;77.90;;;;;;5087855;28;19935;-77
2023/05/08 04:41:35;;;;;;;;;;;15.70;77.90;;;;;;5087959;28;19920;-77
2023/05/08 04:44:01;;;;;;;;;;;15.80;77.90;;;;;;5087833;28;19920;-77
2023/05/08 04:46:27;;;;;;;;;;;15.70;77.90;;;;;;5087984;28;19912;-77
2023/05/08 04:48:53;;;;;;;;;;;15.70;77.90;;;;;;5090863;28;20298;-77
2023/05/08 04:51:18;;;;;;;;;;;15.70;77.90;;;;;;5091803;28;19912;-77
2023/05/08 04:53:44;;;;;;;;;;;15.70;77.90;;;;;;5090373;28;19970;-77
2023/05/08 04:56:09;;;;;;;;;;;15.70;77.90;;;;;;5091646;28;19912;-77
2023/05/08 04:58:35;;;;;;;;;;;15.70;78.00;;;;;;5091695;28;20276;-77
2023/05/08 05:01:01;;;;;;;;;;;15.70;78.00;;;;;;5091388;28;19955;-77
2023/05/08 05:03:26;;;;;;;;;;;15.70;78.00;;;;;;5090190;28;19920;-77
2023/05/08 05:05:58;;;;;;;;;;;15.70;78.10;;;;;;5091610;28;20379;-77
2023/05/08 05:08:24;;;;;;;;;;;15.70;78.10;;;;;;5091637;28;20089;-77
2023/05/08 05:10:50;;;;;;;;;;;15.70;78.00;;;;;;5091663;28;19999;-77
2023/05/08 05:13:15;;;;;;;;;;;15.70;78.00;;;;;;5091360;28;20308;-77
2023/05/08 05:15:41;;;;;;;;;;;15.80;78.10;;;;;;5091409;28;19912;-77
2023/05/08 05:18:07;;;;;;;;;;;15.80;78.10;;;;;;5091284;28;19912;-77
2023/05/08 05:20:32;;;;;;;;;;;15.80;78.10;;;;;;5091383;28;19912;-77
2023/05/08 05:22:58;;;;;;;;;;;15.80;78.10;;;;;;5091068;28;19912;-77
2023/05/08 05:25:23;;;;;;;;;;;15.80;78.10;;;;;;5091109;28;19924;-77
2023/05/08 05:27:49;;;;;;;;;;;15.80;78.10;;;;;;5091132;28;19913;-77
2023/05/08 05:30:14;;;;;;;;;;;15.80;78.10;;;;;;5090994;28;20041;-77
2023/05/08 05:32:40;;;;;;;;;;;15.80;78.10;;;;;;5090597;28;19908;-77
2023/05/08 05:35:06;;;;;;;;;;;15.80;78.10;;;;;;5091029;28;19916;-77
2023/05/08 05:37:32;;;;;;;;;;;15.80;78.10;;;;;;5090866;28;20015;-77
2023/05/08 05:39:57;;;;;;;;;;;15.90;78.20;;;;;;5090956;28;19912;-77
2023/05/08 05:42:23;;;;;;;;;;;15.90;78.20;;;;;;5090864;28;19920;-77
2023/05/08 05:44:48;;;;;;;;;;;15.90;78.20;;;;;;5090661;28;20414;-77
2023/05/08 05:47:14;;;;;;;;;;;15.90;78.20;;;;;;5091231;28;19973;-77
2023/05/08 05:49:41;;;;;;;;;;;15.90;78.20;;;;;;5090804;28;19916;-77
2023/05/08 05:52:07;;;;;;;;;;;15.90;78.20;;;;;;5090876;28;19989;-77
2023/05/08 05:54:32;;;;;;;;;;;16.00;78.30;;;;;;5090568;28;19920;-77
2023/05/08 05:56:58;;;;;;;;;;;16.00;78.20;;;;;;5089213;28;19908;-77
2023/05/08 05:59:24;;;;;;;;;;;16.10;78.30;;;;;;5087883;28;19920;-77
2023/05/08 06:01:49;;;;;;;;;;;16.10;78.20;;;;;;5090330;28;19924;-78
2023/05/08 06:04:15;;;;;;;;;;;16.10;78.20;;;;;;5090265;28;19927;-77
2023/05/08 06:06:40;;;;;;;;;;;16.10;78.30;;;;;;5090143;28;20372;-77
2023/05/08 06:09:06;;;;;;;;;;;16.10;78.20;;;;;;5090299;28;19912;-77
2023/05/08 06:11:31;;;;;;;;;;;16.20;78.30;;;;;;5090424;28;19961;-77
2023/05/08 06:13:57;;;;;;;;;;;16.20;78.30;;;;;;5090557;28;20318;-77
2023/05/08 06:16:23;;;;;;;;;;;16.20;78.30;;;;;;5088709;28;19920;-77
2023/05/08 06:18:49;;;;;;;;;;;16.20;78.30;;;;;;5090259;28;19912;-77
2023/05/08 06:21:15;;;;;;;;;;;16.30;78.30;;;;;;5090221;28;19993;-77
2023/05/08 06:23:41;;;;;;;;;;;16.30;78.30;;;;;;5089788;28;20356;-77
2023/05/08 06:26:07;;;;;;;;;;;16.30;78.30;;;;;;5088313;28;19908;-77
2023/05/08 06:28:32;;;;;;;;;;;16.30;78.30;;;;;;5088562;28;19973;-77
2023/05/08 06:30:58;;;;;;;;;;;16.40;78.40;;;;;;5090002;28;19965;-77
2023/05/08 06:33:24;;;;;;;;;;;16.30;78.30;;;;;;5089974;28;20003;-77
2023/05/08 06:35:49;;;;;;;;;;;16.40;78.30;;;;;;5089836;28;20253;-77
2023/05/08 06:38:15;;;;;;;;;;;16.40;78.40;;;;;;5089566;28;19999;-77
2023/05/08 06:40:42;;;;;;;;;;;16.40;78.40;;;;;;5089762;28;20407;-77
2023/05/08 06:43:07;;;;;;;;;;;16.40;78.40;;;;;;5089592;28;19947;-77
2023/05/08 06:45:33;;;;;;;;;;;16.40;78.40;;;;;;5089524;28;19962;-77
2023/05/08 06:47:58;;;;;;;;;;;16.50;78.50;;;;;;5089521;28;19912;-77
2023/05/08 06:50:24;;;;;;;;;;;16.60;78.60;;;;;;5088217;28;20356;-77
2023/05/08 06:52:50;;;;;;;;;;;16.70;78.50;;;;;;5089346;28;20272;-76
2023/05/08 06:55:16;;;;;;;;;;;16.70;78.40;;;;;;5088211;28;19952;-77
2023/05/08 06:57:41;;;;;;;;;;;16.70;78.40;;;;;;5089241;28;19983;-77
2023/05/08 07:00:07;;;;;;;;;;;16.80;78.50;;;;;;5089169;28;20067;-77
2023/05/08 07:02:33;;;;;;;;;;;16.80;78.50;;;;;;5089184;28;19971;-78
2023/05/08 07:04:58;;;;;;;;;;;16.80;78.50;;;;;;5088948;28;20364;-77
2023/05/08 07:07:24;;;;;;;;;;;16.80;78.50;;;;;;5090322;28;20255;-74
2023/05/08 07:09:49;;;;;;;;;;;16.90;78.60;;;;;;5088680;28;20110;-72
2023/05/08 07:12:15;;;;;;;;;;;17.00;78.60;;;;;;5088498;28;19912;-72
2023/05/08 07:14:42;;;;;;;;;;;17.10;78.60;;;;;;5087555;28;19916;-72
2023/05/08 07:17:08;;;;;;;;;;;17.20;78.60;;;;;;5089292;28;19916;-73
2023/05/08 07:19:37;;;;;;;;;;;17.30;78.70;;;;;;5088502;28;19969;-73
2023/05/08 07:22:02;;;;;;;;;;;17.60;78.90;;;;;;5088260;28;19908;-73
2023/05/08 07:24:28;;;;;;;;;;;18.00;78.70;;;;;;5088557;28;19935;-73
2023/05/08 07:26:53;;;;;;;;;;;18.20;78.60;;;;;;5088508;28;19919;-73
2023/05/08 07:29:19;;;;;;;;;;;18.40;78.30;;;;;;5088515;28;19999;-73
2023/05/08 07:31:47;;;;;;;;;;;18.50;78.00;;;;;;5087148;28;19912;-73
2023/05/08 07:34:13;;;;;;;;;;;18.40;77.90;;;;;;5088197;28;19908;-73
2023/05/08 07:36:39;;;;;;;;;;;18.20;77.90;;;;;;5088337;28;20114;-73
2023/05/08 07:39:04;;;;;;;;;;;18.10;78.20;;;;;;5088384;28;19931;-73
2023/05/08 07:41:30;;;;;;;;;;;18.20;78.60;;;;;;5087982;28;20143;-73
2023/05/08 07:43:56;;;;;;;;;;;18.30;78.40;;;;;;5088005;28;20386;-73
2023/05/08 07:46:21;;;;;;;;;;;18.30;78.10;;;;;;5086237;28;19919;-73
2023/05/08 07:48:47;;;;;;;;;;;18.10;78.10;;;;;;5087936;28;19916;-73
2023/05/08 07:51:13;;;;;;;;;;;17.90;78.20;;;;;;5088015;28;19947;-72
2023/05/08 07:53:39;;;;;;;;;;;17.80;78.30;;;;;;5088053;28;19916;-72
2023/05/08 07:56:04;;;;;;;;;;;17.80;78.60;;;;;;5087896;28;19912;-72
2023/05/08 07:58:30;;;;;;;;;;;17.80;78.70;;;;;;5088225;28;19908;-72
2023/05/08 08:00:56;;;;;;;;;;;17.90;78.80;;;;;;5088451;28;19913;-72
2023/05/08 08:03:21;;;;;;;;;;;18.00;78.80;;;;;;5088139;28;19966;-72
2023/05/08 08:05:47;;;;;;;;;;;18.10;78.90;;;;;;5087009;28;19919;-71
2023/05/08 08:08:12;;;;;;;;;;;18.20;78.80;;;;;;5087946;28;19916;-72
2023/05/08 08:10:38;;;;;;;;;;;18.30;78.60;;;;;;5088344;28;19927;-72
2023/05/08 08:13:04;;;;;;;;;;;18.30;78.60;;;;;;5088401;28;19944;-72
2023/05/08 08:15:30;;;;;;;;;;;18.30;78.50;;;;;;5088331;28;20340;-72
2023/05/08 08:17:55;;;;;;;;;;;18.20;78.50;;;;;;5088288;28;19912;-72
2023/05/08 08:20:21;;;;;;;;;;;18.20;78.60;;;;;;5088154;28;19915;-70
2023/05/08 08:22:46;;;;;;;;;;;18.20;78.50;;;;;;5086238;28;19916;-72
2023/05/08 08:25:12;;;;;;;;;;;18.20;78.70;;;;;;5086823;28;19916;-72
2023/05/08 08:27:38;;;;;;;;;;;18.30;78.80;;;;;;5087939;28;19909;-72
2023/05/08 08:30:04;;;;;;;;;;;18.40;78.80;;;;;;5087556;28;19927;-72
2023/05/08 08:32:29;;;;;;;;;;;18.70;79.00;;;;;;5087549;28;19987;-72
2023/05/08 08:34:55;;;;;;;;;;;18.90;79.00;;;;;;5087931;28;19935;-72
2023/05/08 08:37:21;;;;;;;;;;;19.00;78.80;;;;;;5086087;28;20229;-72
2023/05/08 08:39:47;;;;;;;;;;;19.00;78.50;;;;;;5087829;28;19955;-72
2023/05/08 08:42:13;;;;;;;;;;;19.10;78.70;;;;;;5088957;28;19920;-72
2023/05/08 08:44:38;;;;;;;;;;;19.10;78.70;;;;;;5088012;28;20446;-72
2023/05/08 08:47:04;;;;;;;;;;;19.10;78.70;;;;;;5088203;28;19948;-73
2023/05/08 08:49:31;;;;;;;;;;;19.10;78.80;;;;;;5087136;28;20454;-71
2023/05/08 08:51:58;;;;;;;;;;;19.20;79.30;;;;;;5088613;28;19915;-74
2023/05/08 08:54:26;;;;;;;;;;;19.70;79.70;;;;;;5088384;28;20463;-73
2023/05/08 08:56:54;;;;;;;;;;;20.00;79.00;;;;;;5086728;28;19908;-73
2023/05/08 08:59:21;;;;;;;;;;;20.10;78.60;;;;;;5087941;28;20319;-72
2023/05/08 09:01:50;;;;;;;;;;;20.00;78.30;;;;;;5087698;28;19983;-73
2023/05/08 09:04:15;;;;;;;;;;;19.80;78.00;;;;;;5088078;28;19929;-73
2023/05/08 09:06:41;;;;;;;;;;;19.50;78.20;;;;;;5088221;28;20017;-73
2023/05/08 09:09:07;;;;;;;;;;;19.30;78.40;;;;;;5088423;28;20003;-73
2023/05/08 09:11:33;;;;;;;;;;;19.20;78.50;;;;;;5087846;28;19916;-73
2023/05/08 09:13:58;;;;;;;;;;;19.10;78.60;;;;;;5087923;28;19952;-73
2023/05/08 09:16:24;;;;;;;;;;;19.10;78.90;;;;;;5087232;28;19912;-73
2023/05/08 09:18:50;;;;;;;;;;;19.10;79.00;;;;;;5087498;28;20003;-72
2023/05/08 09:21:15;;;;;;;;;;;19.30;79.10;;;;;;5088004;28;19912;-73
2023/05/08 09:23:55;;;;;;;;;;;19.40;79.10;;;;;;5086480;28;19916;-71
2023/05/08 09:26:31;;;;;;;;;;;19.70;79.50;;;;;;5087595;28;20392;-72
2023/05/08 09:29:09;;;;;;;;;;;20.10;79.80;;;;;;5087826;28;19908;-72
2023/05/08 09:31:35;;;;;;;;;;;20.80;79.70;;;;;;5087760;28;19940;-71
2023/05/08 09:34:00;;;;;;;;;;;21.20;79.40;;;;;;5089015;28;20002;-72
2023/05/08 09:36:30;;;;;;;;;;;21.40;78.90;;;;;;5091642;28;20685;-72
2023/05/08 09:38:56;;;;;;;;;;;21.30;78.60;;;;;;5091322;28;19965;-72
2023/05/08 09:41:23;;;;;;;;;;;21.30;78.70;;;;;;5091502;28;19913;-72
2023/05/08 09:44:01;;;;;;;;;;;21.30;78.90;;;;;;5091283;28;19912;-72
2023/05/08 09:46:26;;;;;;;;;;;21.40;79.30;;;;;;5091069;28;19912;-72
2023/05/08 09:48:53;;;;;;;;;;;21.70;79.20;;;;;;5091087;28;20020;-72
2023/05/08 09:51:19;;;;;;;;;;;22.00;79.30;;;;;;5090886;28;19908;-72
2023/05/08 09:53:45;;;;;;;;;;;22.30;79.40;;;;;;5090490;28;19926;-72
2023/05/08 09:56:10;;;;;;;;;;;22.60;79.20;;;;;;5090277;28;19912;-73
2023/05/08 09:58:36;;;;;;;;;;;22.70;78.90;;;;;;5090715;28;19912;-73
2023/05/08 10:01:02;;;;;;;;;;;22.80;78.70;;;;;;5090086;28;20377;-72
2023/05/08 10:03:45;;;;;;;;;;;22.60;78.40;;;;;;5089114;28;19916;-72
2023/05/08 10:06:11;;;;;;;;;;;22.40;78.40;;;;;;5090953;28;19914;-73
2023/05/08 10:08:36;;;;;;;;;;;22.10;78.50;;;;;;5089573;28;20282;-73
2023/05/08 10:11:12;;;;;;;;;;;21.90;78.90;;;;;;5091055;28;19919;-72
2023/05/08 10:13:37;;;;;;;;;;;21.70;78.90;;;;;;5090697;28;19912;-71
2023/05/08 10:16:03;;;;;;;;;;;21.60;79.20;;;;;;5089266;28;19932;-71
2023/05/08 10:18:34;;;;;;;;;;;21.70;79.70;;;;;;5090810;28;20265;-71
2023/05/08 10:21:02;;;;;;;;;;;22.00;79.90;;;;;;5090614;28;19912;-71
2023/05/08 10:23:28;;;;;;;;;;;22.10;79.40;;;;;;5090654;28;19915;-71
2023/05/08 10:25:57;;;;;;;;;;;22.10;78.90;;;;;;5090471;28;19912;-73
2023/05/08 10:28:35;;;;;;;;;;;21.80;78.80;;;;;;5089335;28;20296;-72
2023/05/08 10:31:02;;;;;;;;;;;21.70;79.10;;;;;;5090826;28;19962;-70
2023/05/08 10:33:32;;;;;;;;;;;21.70;79.40;;;;;;5090486;28;19918;-70
2023/05/08 10:35:59;;;;;;;;;;;21.80;79.40;;;;;;5090530;28;19953;-71
2023/05/08 10:38:25;;;;;;;;;;;21.80;79.40;;;;;;5090108;28;19919;-72
2023/05/08 10:40:56;;;;;;;;;;;22.00;79.90;;;;;;5089916;28;19915;-71
2023/05/08 10:43:25;;;;;;;;;;;22.10;79.50;;;;;;5088672;28;19909;-71
2023/05/08 10:45:54;;;;;;;;;;;22.30;79.50;;;;;;5089168;28;19930;-71
2023/05/08 10:48:38;;;;;;;;;;;22.40;79.50;;;;;;5089888;28;19957;-70
2023/05/08 10:51:20;;;;;;;;;;;22.80;80.10;;;;;;5090073;28;19922;-71
2023/05/08 10:53:58;;;;;;;;;;;23.60;80.30;;;;;;5090165;28;20052;-72
2023/05/08 10:56:27;;;;;;;;;;;24.00;79.50;;;;;;5089899;28;19917;-72
2023/05/08 10:58:56;;;;;;;;;;;24.00;79.00;;;;;;5090096;28;19919;-74
2023/05/08 11:01:22;;;;;;;;;;;24.20;79.60;;;;;;5089738;28;19920;-76
2023/05/08 11:03:51;;;;;;;;;;;25.20;81.20;;;;;;5090210;28;19916;-75
2023/05/08 11:06:17;;;;;;;;;;;26.10;80.50;;;;;;5090075;28;20007;-74
2023/05/08 11:08:45;;;;;;;;;;;26.60;80.30;;;;;;5088823;28;20319;-73
2023/05/08 11:11:14;;;;;;;;;;;27.20;80.50;;;;;;5089626;28;20376;-72
2023/05/08 11:13:43;;;;;;;;;;;27.30;79.50;;;;;;5089054;28;20003;-72
2023/05/08 11:16:12;;;;;;;;;;;26.90;78.70;;;;;;5087895;28;20380;-72
2023/05/08 11:18:57;;;;;;;;;;;26.20;78.50;;;;;;5089516;28;19940;-72
2023/05/08 11:21:23;;;;;;;;;;;26.00;79.40;;;;;;5089136;28;19937;-73
2023/05/08 11:23:57;;;;;;;;;;;26.20;80.50;;;;;;5089251;28;20047;-70
2023/05/08 11:26:37;;;;;;;;;;;26.60;80.50;;;;;;5089378;28;20010;-72
2023/05/08 11:29:14;;;;;;;;;;;26.50;79.60;;;;;;5087644;28;20257;-71
2023/05/08 11:31:49;;;;;;;;;;;26.20;79.20;;;;;;5088943;28;19998;-71
2023/05/08 11:34:33;;;;;;;;;;;26.10;79.90;;;;;;5088593;28;19973;-72
2023/05/08 11:37:00;;;;;;;;;;;26.30;80.40;;;;;;5088233;28;19917;-72
2023/05/08 11:39:26;;;;;;;;;;;26.80;80.70;;;;;;5088536;28;19916;-71
2023/05/08 11:41:51;;;;;;;;;;;27.50;81.40;;;;;;5087072;28;20485;-71
2023/05/08 11:44:21;;;;;;;;;;;28.40;81.70;;;;;;5088365;28;19939;-72
2023/05/08 11:46:53;;;;;;;;;;;29.50;81.80;;;;;;5088665;28;19908;-72
2023/05/08 11:49:20;;;;;;;;;;;30.30;81.10;;;;;;5089128;28;20011;-72
2023/05/08 11:51:47;;;;;;;;;;;30.00;79.80;;;;;;5088823;28;19908;-71
2023/05/08 11:54:16;;;;;;;;;;;29.40;79.60;;;;;;5088794;28;19912;-71
2023/05/08 11:56:41;;;;;;;;;;;29.10;79.90;;;;;;5088205;28;19908;-71
2023/05/08 11:59:08;;;;;;;;;;;28.70;79.80;;;;;;5088330;28;19916;-71
2023/05/08 12:01:34;;;;;;;;;;;28.30;79.70;;;;;;5088504;28;19924;-72
2023/05/08 12:04:07;;;;;;;;;;;27.90;79.80;;;;;;5089318;28;19916;-77
2023/05/08 12:06:34;;;;;;;;;;;28.30;81.80;;;;;;5089498;28;19911;-78
2023/05/08 12:09:00;;;;;;;;;;;29.00;81.90;;;;;;5088918;28;20340;-77
2023/05/08 12:11:26;;;;;;;;;;;29.40;81.40;;;;;;5089122;28;20449;-77
2023/05/08 12:13:53;;;;;;;;;;;29.60;81.70;;;;;;5088875;28;19912;-77
2023/05/08 12:16:20;;;;;;;;;;;30.00;82.00;;;;;;5088863;28;19961;-77
2023/05/08 12:18:48;;;;;;;;;;;30.40;81.80;;;;;;5089206;28;19969;-78
2023/05/08 12:21:14;;;;;;;;;;;30.50;81.60;;;;;;5088254;28;20252;-82
2023/05/08 12:23:39;;;;;;;;;;;30.40;81.40;;;;;;5088878;28;19916;-78
2023/05/08 12:26:06;;;;;;;;;;;30.50;81.40;;;;;;5089032;28;19959;-78
2023/05/08 12:28:33;;;;;;;;;;;30.30;80.90;;;;;;5088589;28;19959;-78
2023/05/08 12:30:58;;;;;;;;;;;29.80;80.50;;;;;;5088640;28;19930;-76
2023/05/08 12:33:24;;;;;;;;;;;29.40;81.40;;;;;;5088690;28;20368;-76
2023/05/08 12:35:50;;;;;;;;;;;29.00;80.40;;;;;;5088787;28;20003;-78
2023/05/08 12:38:15;;;;;;;;;;;28.30;79.70;;;;;;5088885;28;19924;-78
2023/05/08 12:40:42;;;;;;;;;;;27.60;79.60;;;;;;5088014;28;19916;-78
2023/05/08 12:43:08;;;;;;;;;;;27.00;79.80;;;;;;5088948;28;20298;-80
2023/05/08 12:45:38;;;;;;;;;;;26.50;80.00;;;;;;5089241;28;20003;-78
2023/05/08 12:48:11;;;;;;;;;;;26.20;80.20;;;;;;5087900;28;19916;-78
2023/05/08 12:50:37;;;;;;;;;;;25.90;80.20;;;;;;5088557;28;19915;-78
2023/05/08 12:53:04;;;;;;;;;;;25.80;80.40;;;;;;5089393;28;19962;-76
2023/05/08 12:55:30;;;;;;;;;;;25.70;80.30;;;;;;5089146;28;19913;-78
2023/05/08 12:58:00;;;;;;;;;;;25.80;80.70;;;;;;5087820;28;19912;-78
2023/05/08 13:00:33;;;;;;;;;;;26.20;81.20;;;;;;5087468;28;19916;-78
2023/05/08 13:02:59;;;;;;;;;;;26.90;81.70;;;;;;5089054;28;19920;-79
2023/05/08 13:05:25;;;;;;;;;;;27.40;81.40;;;;;;5089226;28;19920;-78
2023/05/08 13:07:50;;;;;;;;;;;28.10;81.60;;;;;;5088642;28;19913;-78
2023/05/08 13:10:17;;;;;;;;;;;28.50;81.40;;;;;;5092119;28;19954;-77
2023/05/08 13:12:44;;;;;;;;;;;28.70;81.00;;;;;;5092876;28;19916;-78
2023/05/08 13:15:10;;;;;;;;;;;28.80;81.10;;;;;;5093445;28;19912;-78
2023/05/08 13:17:35;;;;;;;;;;;28.90;81.10;;;;;;5092592;28;19908;-79
2023/05/08 13:20:02;;;;;;;;;;;28.80;81.10;;;;;;5093087;28;20396;-79
2023/05/08 13:22:28;;;;;;;;;;;28.60;80.80;;;;;;5093146;28;20268;-79
2023/05/08 13:24:54;;;;;;;;;;;28.20;80.30;;;;;;5093340;28;19916;-79
2023/05/08 13:27:19;;;;;;;;;;;27.70;80.10;;;;;;5093249;28;19912;-80
2023/05/08 13:29:45;;;;;;;;;;;27.20;79.80;;;;;;5092788;28;20360;-77
2023/05/08 13:32:10;;;;;;;;;;;26.70;79.70;;;;;;5091995;28;19916;-77
2023/05/08 13:34:36;;;;;;;;;;;26.30;79.80;;;;;;5090440;28;19912;-77
2023/05/08 13:37:02;;;;;;;;;;;25.90;79.90;;;;;;5090867;28;20269;-77
2023/05/08 13:39:30;;;;;;;;;;;25.40;79.20;;;;;;5092374;28;19912;-79
2023/05/08 13:41:56;;;;;;;;;;;24.90;79.40;;;;;;5092451;28;20288;-79
2023/05/08 13:44:21;;;;;;;;;;;24.60;79.80;;;;;;5092383;28;19999;-79
2023/05/08 13:46:47;;;;;;;;;;;24.60;80.20;;;;;;5092045;28;19968;-78
2023/05/08 13:49:13;;;;;;;;;;;24.70;80.80;;;;;;5091927;28;19921;-78
2023/05/08 13:51:38;;;;;;;;;;;24.80;80.00;;;;;;5092500;28;19965;-78
2023/05/08 13:54:04;;;;;;;;;;;24.90;80.00;;;;;;5090410;28;20423;-77
2023/05/08 13:56:29;;;;;;;;;;;24.90;80.00;;;;;;5091196;28;19916;-77
2023/05/08 13:58:55;;;;;;;;;;;24.90;80.00;;;;;;5090466;28;20016;-79
2023/05/08 14:01:20;;;;;;;;;;;25.00;80.00;;;;;;5069738;28;20041;-75
2023/05/08 14:03:46;;;;;;;;;;;25.10;79.90;;;;;;5090560;28;19923;-76
2023/05/08 14:06:11;;;;;;;;;;;25.20;79.70;;;;;;5091135;28;19912;-77
2023/05/08 14:08:37;;;;;;;;;;;25.30;79.70;;;;;;5090838;28;19919;-76
2023/05/08 14:11:03;;;;;;;;;;;25.30;79.40;;;;;;5089449;28;19938;-77
2023/05/08 14:13:31;;;;;;;;;;;25.20;79.10;;;;;;5090822;28;20008;-76
2023/05/08 14:15:57;;;;;;;;;;;25.20;79.00;;;;;;5090001;28;20011;-76
2023/05/08 14:18:22;;;;;;;;;;;25.10;79.00;;;;;;5090030;28;20371;-76